createdAt,value
2023-03-31T00:00:23.534Z,85.89
2023-03-31T00:01:23.883Z,85.89
2023-03-31T00:02:24.249Z,85.79
2023-03-31T00:03:24.648Z,85.69
2023-03-31T00:04:24.772Z,85.79
2023-03-31T00:05:25.091Z,85.89
2023-03-31T00:06:25.424Z,85.89
2023-03-31T00:07:25.722Z,85.89
2023-03-31T00:08:26.054Z,85.89
2023-03-31T00:09:26.411Z,85.99
2023-03-31T00:10:26.699Z,85.89
2023-03-31T00:11:27.034Z,85.99
2023-03-31T00:12:27.367Z,85.99
2023-03-31T00:13:27.692Z,86.10
2023-03-31T00:14:28.000Z,85.99
2023-03-31T00:15:28.305Z,85.99
2023-03-31T00:16:28.696Z,86.10
2023-03-31T00:17:28.894Z,86.10
2023-03-31T00:18:29.158Z,86.10
2023-03-31T00:19:29.469Z,86.10
2023-03-31T00:20:29.818Z,86.10
2023-03-31T00:21:30.132Z,86.10
2023-03-31T00:22:30.467Z,85.99
2023-03-31T00:23:30.788Z,86.10
2023-03-31T00:24:31.116Z,86.10
2023-03-31T00:25:31.418Z,86.20
2023-03-31T00:26:31.744Z,86.20
2023-03-31T00:27:32.057Z,86.30
2023-03-31T00:28:32.388Z,86.30
2023-03-31T00:29:32.696Z,86.20
2023-03-31T00:30:33.005Z,86.20
2023-03-31T00:31:33.345Z,86.20
2023-03-31T00:32:33.667Z,86.10
2023-03-31T00:33:33.922Z,86.10
2023-03-31T00:34:34.221Z,86.20
2023-03-31T00:35:34.579Z,86.10
2023-03-31T00:36:34.890Z,86.20
2023-03-31T00:37:35.201Z,86.10
2023-03-31T00:38:35.507Z,86.20
2023-03-31T00:39:35.814Z,86.20
2023-03-31T00:40:36.129Z,86.20
2023-03-31T00:41:36.454Z,86.20
2023-03-31T00:42:36.762Z,86.10
2023-03-31T00:43:37.095Z,86.10
2023-03-31T00:44:37.384Z,86.10
2023-03-31T00:45:37.813Z,85.99
2023-03-31T00:46:37.985Z,85.99
2023-03-31T00:47:38.233Z,86.10
2023-03-31T00:48:38.575Z,85.99
2023-03-31T00:49:38.841Z,85.89
2023-03-31T00:50:39.170Z,85.89
2023-03-31T00:51:39.499Z,85.89
2023-03-31T00:52:39.810Z,85.89
2023-03-31T00:53:40.164Z,85.79
2023-03-31T00:54:40.458Z,85.89
2023-03-31T00:55:40.795Z,85.99
2023-03-31T00:56:41.083Z,85.89
2023-03-31T00:57:41.397Z,85.89
2023-03-31T00:58:41.693Z,85.99
2023-03-31T00:59:42.015Z,85.99
2023-03-31T01:00:42.401Z,85.89
2023-03-31T01:01:43.040Z,85.89
2023-03-31T01:02:43.010Z,85.99
2023-03-31T01:03:43.375Z,85.96
2023-03-31T01:04:43.527Z,85.85
2023-03-31T01:05:43.851Z,85.85
2023-03-31T01:06:44.155Z,85.75
2023-03-31T01:07:44.522Z,85.75
2023-03-31T01:08:44.783Z,85.75
2023-03-31T01:09:45.123Z,85.85
2023-03-31T01:10:45.429Z,85.85
2023-03-31T01:11:45.763Z,85.64
2023-03-31T01:12:46.064Z,85.75
2023-03-31T01:13:46.394Z,85.64
2023-03-31T01:14:46.663Z,85.64
2023-03-31T01:15:47.001Z,85.55
2023-03-31T01:16:47.431Z,85.64
2023-03-31T01:17:47.887Z,85.64
2023-03-31T01:18:48.120Z,85.64
2023-03-31T01:19:48.276Z,85.64
2023-03-31T01:20:48.593Z,85.64
2023-03-31T01:21:48.927Z,85.64
2023-03-31T01:22:49.228Z,85.75
2023-03-31T01:23:49.525Z,85.85
2023-03-31T01:24:49.828Z,85.75
2023-03-31T01:25:50.161Z,85.85
2023-03-31T01:26:50.451Z,85.85
2023-03-31T01:27:50.766Z,85.96
2023-03-31T01:28:51.137Z,85.96
2023-03-31T01:29:51.408Z,86.05
2023-03-31T01:30:51.763Z,86.05
2023-03-31T01:31:52.164Z,86.05
2023-03-31T01:32:52.407Z,86.16
2023-03-31T01:33:52.672Z,86.16
2023-03-31T01:34:52.975Z,86.16
2023-03-31T01:35:53.287Z,86.05
2023-03-31T01:36:53.618Z,86.16
2023-03-31T01:37:53.914Z,86.16
2023-03-31T01:38:54.222Z,86.16
2023-03-31T01:39:54.528Z,86.16
2023-03-31T01:40:54.843Z,86.16
2023-03-31T01:41:55.147Z,86.05
2023-03-31T01:42:55.461Z,86.05
2023-03-31T01:43:55.781Z,86.16
2023-03-31T01:44:56.108Z,86.16
2023-03-31T01:45:56.410Z,86.16
2023-03-31T01:46:56.720Z,86.16
2023-03-31T01:47:57.081Z,86.05
2023-03-31T01:48:57.400Z,86.05
2023-03-31T01:49:57.675Z,86.05
2023-03-31T01:50:58.021Z,86.16
2023-03-31T01:51:58.330Z,86.26
2023-03-31T01:52:58.632Z,86.26
2023-03-31T01:53:58.935Z,86.26
2023-03-31T01:54:59.273Z,86.26
2023-03-31T01:55:59.536Z,86.36
2023-03-31T01:56:59.919Z,86.36
2023-03-31T01:58:00.147Z,86.40
2023-03-31T01:59:00.405Z,86.40
2023-03-31T02:00:00.744Z,86.40
2023-03-31T02:01:01.061Z,86.40
2023-03-31T02:02:01.396Z,86.51
2023-03-31T02:03:01.790Z,86.51
2023-03-31T02:04:02.027Z,86.51
2023-03-31T02:05:02.296Z,86.40
2023-03-31T02:06:02.605Z,86.51
2023-03-31T02:07:02.924Z,86.51
2023-03-31T02:08:03.234Z,86.51
2023-03-31T02:09:03.512Z,86.51
2023-03-31T02:10:03.833Z,86.51
2023-03-31T02:11:04.177Z,86.51
2023-03-31T02:12:04.460Z,86.40
2023-03-31T02:13:04.756Z,86.40
2023-03-31T02:14:05.066Z,86.40
2023-03-31T02:15:05.350Z,86.40
2023-03-31T02:16:05.911Z,86.51
2023-03-31T02:17:05.998Z,86.40
2023-03-31T02:18:06.351Z,86.51
2023-03-31T02:19:06.630Z,86.51
2023-03-31T02:20:07.039Z,86.61
2023-03-31T02:21:07.255Z,86.51
2023-03-31T02:22:07.558Z,86.61
2023-03-31T02:23:07.887Z,86.61
2023-03-31T02:24:08.190Z,86.51
2023-03-31T02:25:08.495Z,86.51
2023-03-31T02:26:08.839Z,86.40
2023-03-31T02:27:09.110Z,86.51
2023-03-31T02:28:09.412Z,86.51
2023-03-31T02:29:09.721Z,86.40
2023-03-31T02:30:10.058Z,86.30
2023-03-31T02:31:10.357Z,86.30
2023-03-31T02:32:10.656Z,86.30
2023-03-31T02:33:10.968Z,86.40
2023-03-31T02:34:11.267Z,86.40
2023-03-31T02:35:11.560Z,86.30
2023-03-31T02:36:11.926Z,86.40
2023-03-31T02:37:12.226Z,86.40
2023-03-31T02:38:12.532Z,86.30
2023-03-31T02:39:12.829Z,86.30
2023-03-31T02:40:13.173Z,86.20
2023-03-31T02:41:13.478Z,86.20
2023-03-31T02:42:13.779Z,86.20
2023-03-31T02:43:14.077Z,86.20
2023-03-31T02:44:14.389Z,86.20
2023-03-31T02:45:14.728Z,86.30
2023-03-31T02:46:15.104Z,86.20
2023-03-31T02:47:15.258Z,86.20
2023-03-31T02:48:15.552Z,86.20
2023-03-31T02:49:15.881Z,86.20
2023-03-31T02:50:16.215Z,86.20
2023-03-31T02:51:16.473Z,86.20
2023-03-31T02:52:16.782Z,86.10
2023-03-31T02:53:17.112Z,85.99
2023-03-31T02:54:17.402Z,85.99
2023-03-31T02:55:17.710Z,85.99
2023-03-31T02:56:18.021Z,85.99
2023-03-31T02:57:18.385Z,86.10
2023-03-31T02:58:18.662Z,85.99
2023-03-31T02:59:18.961Z,85.99
2023-03-31T03:00:19.282Z,85.99
2023-03-31T03:01:19.612Z,85.99
2023-03-31T03:02:19.936Z,85.99
2023-03-31T03:03:20.263Z,85.99
2023-03-31T03:04:20.546Z,85.99
2023-03-31T03:05:20.826Z,85.99
2023-03-31T03:06:21.154Z,85.89
2023-03-31T03:07:21.474Z,85.79
2023-03-31T03:08:21.778Z,85.79
2023-03-31T03:09:22.083Z,85.89
2023-03-31T03:10:22.396Z,85.89
2023-03-31T03:11:22.726Z,85.83
2023-03-31T03:12:23.030Z,85.72
2023-03-31T03:13:23.319Z,85.72
2023-03-31T03:14:23.686Z,85.72
2023-03-31T03:15:23.973Z,85.83
2023-03-31T03:16:24.297Z,85.93
2023-03-31T03:17:24.614Z,85.93
2023-03-31T03:18:24.894Z,85.83
2023-03-31T03:19:25.198Z,85.72
2023-03-31T03:20:25.497Z,85.72
2023-03-31T03:21:25.835Z,85.83
2023-03-31T03:22:26.116Z,85.83
2023-03-31T03:23:26.457Z,85.83
2023-03-31T03:24:26.741Z,85.83
2023-03-31T03:25:27.052Z,85.83
2023-03-31T03:26:27.369Z,85.93
2023-03-31T03:27:27.680Z,85.93
2023-03-31T03:28:28.015Z,85.87
2023-03-31T03:29:28.329Z,85.87
2023-03-31T03:30:28.637Z,85.97
2023-03-31T03:31:28.972Z,86.07
2023-03-31T03:32:29.289Z,86.07
2023-03-31T03:33:29.576Z,86.07
2023-03-31T03:34:29.903Z,85.97
2023-03-31T03:35:30.205Z,85.97
2023-03-31T03:36:30.552Z,85.97
2023-03-31T03:37:30.844Z,85.97
2023-03-31T03:38:31.166Z,85.97
2023-03-31T03:39:31.484Z,85.97
2023-03-31T03:40:31.800Z,86.07
2023-03-31T03:41:32.127Z,86.07
2023-03-31T03:42:32.405Z,85.97
2023-03-31T03:43:32.710Z,85.87
2023-03-31T03:44:33.007Z,85.97
2023-03-31T03:45:33.324Z,85.97
2023-03-31T03:46:33.669Z,85.97
2023-03-31T03:47:33.986Z,85.97
2023-03-31T03:48:34.272Z,85.97
2023-03-31T03:49:34.563Z,85.97
2023-03-31T03:50:34.874Z,85.91
2023-03-31T03:51:35.167Z,86.01
2023-03-31T03:52:35.479Z,86.01
2023-03-31T03:53:35.783Z,86.01
2023-03-31T03:54:36.125Z,86.11
2023-03-31T03:55:36.385Z,86.22
2023-03-31T03:56:36.695Z,86.22
2023-03-31T03:57:36.992Z,86.22
2023-03-31T03:58:37.298Z,86.22
2023-03-31T03:59:37.601Z,86.32
2023-03-31T04:00:37.885Z,86.32
2023-03-31T04:01:38.253Z,86.22
2023-03-31T04:02:38.685Z,86.32
2023-03-31T04:03:38.871Z,86.32
2023-03-31T04:04:39.168Z,86.32
2023-03-31T04:05:39.435Z,86.32
2023-03-31T04:06:39.773Z,86.22
2023-03-31T04:07:40.102Z,86.11
2023-03-31T04:08:40.411Z,86.22
2023-03-31T04:09:40.688Z,86.22
2023-03-31T04:10:41.002Z,86.11
2023-03-31T04:11:41.316Z,86.01
2023-03-31T04:12:41.539Z,86.01
2023-03-31T04:13:41.821Z,86.11
2023-03-31T04:14:42.117Z,86.01
2023-03-31T04:15:42.411Z,86.01
2023-03-31T04:16:42.920Z,86.01
2023-03-31T04:17:42.959Z,86.01
2023-03-31T04:18:43.249Z,86.05
2023-03-31T04:19:43.573Z,85.95
2023-03-31T04:20:43.892Z,86.15
2023-03-31T04:21:44.239Z,86.15
2023-03-31T04:22:44.550Z,86.25
2023-03-31T04:23:44.873Z,86.25
2023-03-31T04:24:45.187Z,86.25
2023-03-31T04:25:45.527Z,86.25
2023-03-31T04:26:45.841Z,86.25
2023-03-31T04:27:46.150Z,86.25
2023-03-31T04:28:46.487Z,86.36
2023-03-31T04:29:46.798Z,86.36
2023-03-31T04:30:47.141Z,86.36
2023-03-31T04:31:47.583Z,86.25
2023-03-31T04:32:47.766Z,86.15
2023-03-31T04:33:48.068Z,86.15
2023-03-31T04:34:48.393Z,86.25
2023-03-31T04:35:48.832Z,86.15
2023-03-31T04:36:49.056Z,86.25
2023-03-31T04:37:49.321Z,86.36
2023-03-31T04:38:49.681Z,86.36
2023-03-31T04:39:49.991Z,86.25
2023-03-31T04:40:50.319Z,86.36
2023-03-31T04:41:50.651Z,86.25
2023-03-31T04:42:50.975Z,86.36
2023-03-31T04:43:51.280Z,86.46
2023-03-31T04:44:51.611Z,86.46
2023-03-31T04:45:52.040Z,86.36
2023-03-31T04:46:52.220Z,86.46
2023-03-31T04:47:52.590Z,86.46
2023-03-31T04:48:52.857Z,86.46
2023-03-31T04:49:53.186Z,86.46
2023-03-31T04:50:53.496Z,86.46
2023-03-31T04:51:53.828Z,86.57
2023-03-31T04:52:54.164Z,86.57
2023-03-31T04:53:54.629Z,86.57
2023-03-31T04:54:54.808Z,86.57
2023-03-31T04:55:55.127Z,86.57
2023-03-31T04:56:55.532Z,86.57
2023-03-31T04:57:55.684Z,86.66
2023-03-31T04:58:56.031Z,86.57
2023-03-31T04:59:56.335Z,86.46
2023-03-31T05:00:56.680Z,86.36
2023-03-31T05:01:57.039Z,86.36
2023-03-31T05:02:57.493Z,86.32
2023-03-31T05:03:57.674Z,86.01
2023-03-31T05:04:58.019Z,86.11
2023-03-31T05:05:58.369Z,86.01
2023-03-31T05:06:58.704Z,86.01
2023-03-31T05:07:59.027Z,86.01
2023-03-31T05:08:59.345Z,86.01
2023-03-31T05:09:59.682Z,86.01
2023-03-31T05:11:00.023Z,86.11
2023-03-31T05:12:00.348Z,86.11
2023-03-31T05:13:00.689Z,86.01
2023-03-31T05:14:01.029Z,85.97
2023-03-31T05:15:01.360Z,85.97
2023-03-31T05:16:01.730Z,85.97
2023-03-31T05:17:02.015Z,85.97
2023-03-31T05:18:02.245Z,85.97
2023-03-31T05:19:02.458Z,85.97
2023-03-31T05:20:02.821Z,85.87
2023-03-31T05:21:03.175Z,85.77
2023-03-31T05:22:03.399Z,85.77
2023-03-31T05:23:03.771Z,85.77
2023-03-31T05:24:04.069Z,85.77
2023-03-31T05:25:05.022Z,85.77
2023-03-31T05:26:05.270Z,85.72
2023-03-31T05:27:05.643Z,85.72
2023-03-31T05:28:05.232Z,85.83
2023-03-31T05:29:05.431Z,85.58
2023-03-31T05:30:05.808Z,85.38
2023-03-31T05:31:06.151Z,84.83
2023-03-31T05:32:06.417Z,84.63
2023-03-31T05:33:06.684Z,84.63
2023-03-31T05:34:06.924Z,84.72
2023-03-31T05:35:07.139Z,84.87
2023-03-31T05:36:07.651Z,84.97
2023-03-31T05:37:07.680Z,85.07
2023-03-31T05:38:07.966Z,85.17
2023-03-31T05:39:08.189Z,85.17
2023-03-31T05:40:08.521Z,85.28
2023-03-31T05:41:08.809Z,85.38
2023-03-31T05:42:09.048Z,85.48
2023-03-31T05:43:09.268Z,85.48
2023-03-31T05:44:09.609Z,85.48
2023-03-31T05:45:09.963Z,85.58
2023-03-31T05:46:10.648Z,85.58
2023-03-31T05:47:10.580Z,85.58
2023-03-31T05:48:10.842Z,85.58
2023-03-31T05:49:11.037Z,85.58
2023-03-31T05:50:13.340Z,85.58
2023-03-31T05:51:11.734Z,85.44
2023-03-31T05:52:11.954Z,85.34
2023-03-31T05:53:12.177Z,85.34
2023-03-31T05:54:12.402Z,85.34
2023-03-31T05:55:12.782Z,85.34
2023-03-31T05:56:12.984Z,85.44
2023-03-31T05:57:13.397Z,85.44
2023-03-31T05:58:13.607Z,85.55
2023-03-31T05:59:15.165Z,85.44
2023-03-31T06:00:14.065Z,85.44
2023-03-31T06:01:17.735Z,85.44
2023-03-31T06:02:14.686Z,85.55
2023-03-31T06:03:14.912Z,85.55
2023-03-31T06:04:15.146Z,85.55
2023-03-31T06:05:15.535Z,85.55
2023-03-31T06:06:15.722Z,85.61
2023-03-31T06:07:16.121Z,85.61
2023-03-31T06:08:16.341Z,85.61
2023-03-31T06:09:16.577Z,85.61
2023-03-31T06:10:16.795Z,85.61
2023-03-31T06:11:17.138Z,85.50
2023-03-31T06:12:17.500Z,85.40
2023-03-31T06:13:17.705Z,85.40
2023-03-31T06:14:18.055Z,85.40
2023-03-31T06:15:18.398Z,85.40
2023-03-31T06:16:18.775Z,85.30
2023-03-31T06:17:18.997Z,85.30
2023-03-31T06:18:20.675Z,85.20
2023-03-31T06:19:19.450Z,85.06
2023-03-31T06:20:27.193Z,85.16
2023-03-31T06:21:21.134Z,84.95
2023-03-31T06:22:20.428Z,84.85
2023-03-31T06:23:20.687Z,84.85
2023-03-31T06:24:20.903Z,84.75
2023-03-31T06:25:21.129Z,84.85
2023-03-31T06:26:21.478Z,84.65
2023-03-31T06:27:21.723Z,84.50
2023-03-31T06:28:21.959Z,84.41
2023-03-31T06:29:22.215Z,84.30
2023-03-31T06:30:22.452Z,84.09
2023-03-31T06:31:22.739Z,84.09
2023-03-31T06:32:23.007Z,84.00
2023-03-31T06:33:23.189Z,83.69
2023-03-31T06:34:23.559Z,83.65
2023-03-31T06:35:23.888Z,83.44
2023-03-31T06:36:24.669Z,83.44
2023-03-31T06:37:24.580Z,83.44
2023-03-31T06:38:24.819Z,83.54
2023-03-31T06:39:28.118Z,83.34
2023-03-31T06:40:25.354Z,83.24
2023-03-31T06:41:25.722Z,83.14
2023-03-31T06:42:26.088Z,83.14
2023-03-31T06:43:26.288Z,83.10
2023-03-31T06:44:26.631Z,83.10
2023-03-31T06:45:26.854Z,83.10
2023-03-31T06:46:27.296Z,83.00
2023-03-31T06:47:27.592Z,82.69
2023-03-31T06:48:27.861Z,82.59
2023-03-31T06:49:28.072Z,82.79
2023-03-31T06:50:28.422Z,82.39
2023-03-31T06:51:30.593Z,82.49
2023-03-31T06:52:28.910Z,82.69
2023-03-31T06:53:29.117Z,82.89
2023-03-31T06:54:29.470Z,82.79
2023-03-31T06:55:29.762Z,82.69
2023-03-31T06:56:30.009Z,82.79
2023-03-31T06:57:30.397Z,82.69
2023-03-31T06:58:31.585Z,82.69
2023-03-31T06:59:30.948Z,82.89
2023-03-31T07:00:31.183Z,83.10
2023-03-31T07:01:31.460Z,83.10
2023-03-31T07:02:31.925Z,82.89
2023-03-31T07:03:31.956Z,82.89
2023-03-31T07:04:32.179Z,82.79
2023-03-31T07:05:32.501Z,82.65
2023-03-31T07:06:32.718Z,82.45
2023-03-31T07:07:33.058Z,82.45
2023-03-31T07:08:33.396Z,82.35
2023-03-31T07:09:33.738Z,82.45
2023-03-31T07:10:34.199Z,82.14
2023-03-31T07:11:34.348Z,82.14
2023-03-31T07:12:34.708Z,82.04
2023-03-31T07:13:34.952Z,81.84
2023-03-31T07:14:35.181Z,81.70
2023-03-31T07:15:35.563Z,81.70
2023-03-31T07:16:35.836Z,81.70
2023-03-31T07:17:36.088Z,81.39
2023-03-31T07:18:36.408Z,81.18
2023-03-31T07:19:36.642Z,81.29
2023-03-31T07:20:36.862Z,81.39
2023-03-31T07:21:37.216Z,81.59
2023-03-31T07:22:37.609Z,81.70
2023-03-31T07:23:37.828Z,81.66
2023-03-31T07:24:38.175Z,81.66
2023-03-31T07:25:38.405Z,81.25
2023-03-31T07:26:38.903Z,81.45
2023-03-31T07:27:39.039Z,81.56
2023-03-31T07:28:39.256Z,81.41
2023-03-31T07:29:39.607Z,81.21
2023-03-31T07:30:39.963Z,81.11
2023-03-31T07:31:40.243Z,81.01
2023-03-31T07:32:40.457Z,80.70
2023-03-31T07:33:40.744Z,80.91
2023-03-31T07:34:40.952Z,81.01
2023-03-31T07:35:41.231Z,81.01
2023-03-31T07:36:41.607Z,80.80
2023-03-31T07:37:41.836Z,80.60
2023-03-31T07:38:42.094Z,80.36
2023-03-31T07:39:42.313Z,80.16
2023-03-31T07:40:42.571Z,80.26
2023-03-31T07:41:42.774Z,79.95
2023-03-31T07:42:43.206Z,80.02
2023-03-31T07:43:43.467Z,79.91
2023-03-31T07:44:43.777Z,79.41
2023-03-31T07:45:44.040Z,79.71
2023-03-31T07:46:44.491Z,79.68
2023-03-31T07:47:44.909Z,78.55
2023-03-31T07:48:44.769Z,78.45
2023-03-31T07:49:45.115Z,78.76
2023-03-31T07:50:45.349Z,78.96
2023-03-31T07:51:45.604Z,78.86
2023-03-31T07:52:47.192Z,78.55
2023-03-31T07:53:46.220Z,78.86
2023-03-31T07:54:46.466Z,78.96
2023-03-31T07:55:46.729Z,78.80
2023-03-31T07:56:47.173Z,79.00
2023-03-31T07:57:47.249Z,79.00
2023-03-31T07:58:47.497Z,78.80
2023-03-31T07:59:47.744Z,78.80
2023-03-31T08:00:48.001Z,79.14
2023-03-31T08:01:55.968Z,79.24
2023-03-31T08:02:48.569Z,79.14
2023-03-31T08:03:48.930Z,79.03
2023-03-31T08:04:49.227Z,79.54
2023-03-31T08:05:51.140Z,79.75
2023-03-31T08:06:49.687Z,80.16
2023-03-31T08:07:50.070Z,79.75
2023-03-31T08:08:50.314Z,79.64
2023-03-31T08:09:50.521Z,79.64
2023-03-31T08:10:50.769Z,79.64
2023-03-31T08:11:50.993Z,79.44
2023-03-31T08:12:51.218Z,79.14
2023-03-31T08:13:51.444Z,79.34
2023-03-31T08:14:51.798Z,79.85
2023-03-31T08:15:52.114Z,80.05
2023-03-31T08:16:52.325Z,79.95
2023-03-31T08:17:52.592Z,79.95
2023-03-31T08:18:52.796Z,80.05
2023-03-31T08:19:53.151Z,79.95
2023-03-31T08:20:53.393Z,79.85
2023-03-31T08:21:53.605Z,80.05
2023-03-31T08:22:53.984Z,79.75
2023-03-31T08:23:54.210Z,79.64
2023-03-31T08:24:54.461Z,79.50
2023-03-31T08:25:54.807Z,79.41
2023-03-31T08:26:55.019Z,78.80
2023-03-31T08:27:55.389Z,78.59
2023-03-31T08:28:55.645Z,78.59
2023-03-31T08:29:55.897Z,79.10
2023-03-31T08:30:56.143Z,79.00
2023-03-31T08:31:56.390Z,78.69
2023-03-31T08:32:56.729Z,78.69
2023-03-31T08:33:56.946Z,78.89
2023-03-31T08:34:57.284Z,78.49
2023-03-31T08:35:58.338Z,78.80
2023-03-31T08:36:57.971Z,78.80
2023-03-31T08:37:58.256Z,78.59
2023-03-31T08:38:58.503Z,78.55
2023-03-31T08:39:58.746Z,78.45
2023-03-31T08:40:59.004Z,78.25
2023-03-31T08:41:59.224Z,78.05
2023-03-31T08:42:59.476Z,77.74
2023-03-31T08:43:59.709Z,77.23
2023-03-31T08:45:00.107Z,76.62
2023-03-31T08:46:00.357Z,76.42
2023-03-31T08:47:00.612Z,76.38
2023-03-31T08:48:00.887Z,76.59
2023-03-31T08:49:01.126Z,76.48
2023-03-31T08:50:01.373Z,76.59
2023-03-31T08:51:01.802Z,75.98
2023-03-31T08:52:02.081Z,75.84
2023-03-31T08:53:02.336Z,76.04
2023-03-31T08:54:02.556Z,76.34
2023-03-31T08:55:02.945Z,75.94
2023-03-31T08:56:03.182Z,75.70
2023-03-31T08:57:03.560Z,75.49
2023-03-31T08:58:03.779Z,75.09
2023-03-31T08:59:04.051Z,75.19
2023-03-31T09:00:04.326Z,75.09
2023-03-31T09:01:04.867Z,75.29
2023-03-31T09:02:05.013Z,75.19
2023-03-31T09:03:07.355Z,75.09
2023-03-31T09:04:06.841Z,75.19
2023-03-31T09:05:05.859Z,74.88
2023-03-31T09:06:06.188Z,74.68
2023-03-31T09:07:06.422Z,74.68
2023-03-31T09:08:06.669Z,74.58
2023-03-31T09:09:06.908Z,74.58
2023-03-31T09:10:07.170Z,74.79
2023-03-31T09:11:07.412Z,74.38
2023-03-31T09:12:07.742Z,74.48
2023-03-31T09:13:08.126Z,74.58
2023-03-31T09:14:08.389Z,74.92
2023-03-31T09:15:08.616Z,74.92
2023-03-31T09:16:09.322Z,74.62
2023-03-31T09:17:09.402Z,74.62
2023-03-31T09:18:09.597Z,74.82
2023-03-31T09:19:09.818Z,74.92
2023-03-31T09:20:10.046Z,74.82
2023-03-31T09:21:10.303Z,74.82
2023-03-31T09:22:10.544Z,74.58
2023-03-31T09:23:10.900Z,74.68
2023-03-31T09:24:11.188Z,74.38
2023-03-31T09:25:11.432Z,74.38
2023-03-31T09:26:11.663Z,73.87
2023-03-31T09:27:12.031Z,73.67
2023-03-31T09:28:12.266Z,73.63
2023-03-31T09:29:12.498Z,73.53
2023-03-31T09:30:12.893Z,74.14
2023-03-31T09:31:13.202Z,74.24
2023-03-31T09:32:13.431Z,73.63
2023-03-31T09:33:13.662Z,73.80
2023-03-31T09:34:13.910Z,73.60
2023-03-31T09:35:14.130Z,73.39
2023-03-31T09:36:14.375Z,72.69
2023-03-31T09:37:14.656Z,72.58
2023-03-31T09:38:14.889Z,72.78
2023-03-31T09:39:15.140Z,72.78
2023-03-31T09:40:15.372Z,72.28
2023-03-31T09:41:15.611Z,72.17
2023-03-31T09:42:15.895Z,72.69
2023-03-31T09:43:16.159Z,73.19
2023-03-31T09:44:16.371Z,73.29
2023-03-31T09:45:16.778Z,72.89
2023-03-31T09:46:17.223Z,72.28
2023-03-31T09:47:17.387Z,72.08
2023-03-31T09:48:17.662Z,72.48
2023-03-31T09:49:17.921Z,72.89
2023-03-31T09:50:18.132Z,72.45
2023-03-31T09:51:18.483Z,72.25
2023-03-31T09:52:18.718Z,72.04
2023-03-31T09:53:19.022Z,71.94
2023-03-31T09:54:19.206Z,71.23
2023-03-31T09:55:32.138Z,71.53
2023-03-31T09:56:20.797Z,72.25
2023-03-31T09:57:20.182Z,72.04
2023-03-31T09:58:20.377Z,71.64
2023-03-31T09:59:20.746Z,71.53
2023-03-31T10:00:21.041Z,70.92
2023-03-31T10:01:22.068Z,70.72
2023-03-31T10:02:21.641Z,70.72
2023-03-31T10:03:21.899Z,70.83
2023-03-31T10:04:22.218Z,70.83
2023-03-31T10:05:22.445Z,70.83
2023-03-31T10:06:22.692Z,70.48
2023-03-31T10:07:23.023Z,70.79
2023-03-31T10:08:23.285Z,70.79
2023-03-31T10:09:23.507Z,69.95
2023-03-31T10:10:23.756Z,69.84
2023-03-31T10:11:23.970Z,69.92
2023-03-31T10:12:24.262Z,69.10
2023-03-31T10:13:24.535Z,68.19
2023-03-31T10:14:24.785Z,67.89
2023-03-31T10:15:25.036Z,68.40
2023-03-31T10:16:25.468Z,68.77
2023-03-31T10:17:25.644Z,68.46
2023-03-31T10:18:26.002Z,68.06
2023-03-31T10:19:26.260Z,68.16
2023-03-31T10:20:26.515Z,68.46
2023-03-31T10:21:26.719Z,68.26
2023-03-31T10:22:26.936Z,68.26
2023-03-31T10:23:27.252Z,68.16
2023-03-31T10:24:27.468Z,67.55
2023-03-31T10:25:27.740Z,68.06
2023-03-31T10:26:27.978Z,67.85
2023-03-31T10:27:28.194Z,67.85
2023-03-31T10:28:28.584Z,67.85
2023-03-31T10:29:28.807Z,67.65
2023-03-31T10:30:29.174Z,67.55
2023-03-31T10:31:29.461Z,67.65
2023-03-31T10:32:29.777Z,67.55
2023-03-31T10:33:30.026Z,67.76
2023-03-31T10:34:30.211Z,67.76
2023-03-31T10:35:30.582Z,67.85
2023-03-31T10:36:30.799Z,67.76
2023-03-31T10:37:31.156Z,67.55
2023-03-31T10:38:31.412Z,67.65
2023-03-31T10:39:31.629Z,67.35
2023-03-31T10:40:32.179Z,66.94
2023-03-31T10:41:32.271Z,67.05
2023-03-31T10:42:32.509Z,67.14
2023-03-31T10:43:32.781Z,67.05
2023-03-31T10:44:33.024Z,67.25
2023-03-31T10:45:38.036Z,67.45
2023-03-31T10:46:34.617Z,67.35
2023-03-31T10:47:33.942Z,67.22
2023-03-31T10:48:34.240Z,68.02
2023-03-31T10:49:34.482Z,67.32
2023-03-31T10:50:34.698Z,67.11
2023-03-31T10:51:35.044Z,66.50
2023-03-31T10:52:35.398Z,66.20
2023-03-31T10:53:35.646Z,66.84
2023-03-31T10:54:35.881Z,67.25
2023-03-31T10:55:36.147Z,67.05
2023-03-31T10:56:36.406Z,66.94
2023-03-31T10:57:36.742Z,67.18
2023-03-31T10:58:36.961Z,67.48
2023-03-31T10:59:37.194Z,67.28
2023-03-31T11:00:37.571Z,67.99
2023-03-31T11:01:37.793Z,68.19
2023-03-31T11:02:38.112Z,68.49
2023-03-31T11:03:38.469Z,68.49
2023-03-31T11:04:38.685Z,68.19
2023-03-31T11:05:38.986Z,68.09
2023-03-31T11:06:39.180Z,68.09
2023-03-31T11:07:39.529Z,68.09
2023-03-31T11:08:39.898Z,68.19
2023-03-31T11:09:40.119Z,68.36
2023-03-31T11:10:41.921Z,67.96
2023-03-31T11:11:40.713Z,67.55
2023-03-31T11:12:40.952Z,67.25
2023-03-31T11:13:41.206Z,67.25
2023-03-31T11:14:41.419Z,67.65
2023-03-31T11:15:41.836Z,67.55
2023-03-31T11:16:43.081Z,67.25
2023-03-31T11:17:42.406Z,67.38
2023-03-31T11:18:42.628Z,67.38
2023-03-31T11:19:42.865Z,67.89
2023-03-31T11:20:43.190Z,68.40
2023-03-31T11:21:43.410Z,67.89
2023-03-31T11:22:43.771Z,68.09
2023-03-31T11:23:44.144Z,68.49
2023-03-31T11:24:44.342Z,68.60
2023-03-31T11:25:44.686Z,68.66
2023-03-31T11:26:45.808Z,68.06
2023-03-31T11:27:45.405Z,67.85
2023-03-31T11:28:45.700Z,67.45
2023-03-31T11:29:45.890Z,67.32
2023-03-31T11:30:46.172Z,66.64
2023-03-31T11:31:46.516Z,66.91
2023-03-31T11:32:46.888Z,66.61
2023-03-31T11:33:47.229Z,66.03
2023-03-31T11:34:47.505Z,65.83
2023-03-31T11:35:47.816Z,66.03
2023-03-31T11:36:48.060Z,66.81
2023-03-31T11:37:48.352Z,67.01
2023-03-31T11:38:48.795Z,66.81
2023-03-31T11:39:48.894Z,66.30
2023-03-31T11:40:49.213Z,66.71
2023-03-31T11:41:49.440Z,66.88
2023-03-31T11:42:49.714Z,66.17
2023-03-31T11:43:50.203Z,66.67
2023-03-31T11:44:50.333Z,66.85
2023-03-31T11:45:50.667Z,66.55
2023-03-31T11:46:50.998Z,66.35
2023-03-31T11:47:51.363Z,66.07
2023-03-31T11:48:51.626Z,65.56
2023-03-31T11:49:51.857Z,65.77
2023-03-31T11:50:52.242Z,66.17
2023-03-31T11:51:52.514Z,65.80
2023-03-31T11:52:52.744Z,65.50
2023-03-31T11:53:53.770Z,65.59
2023-03-31T11:54:53.459Z,65.80
2023-03-31T11:55:53.552Z,65.80
2023-03-31T11:56:53.855Z,66.20
2023-03-31T11:57:54.105Z,66.20
2023-03-31T11:58:54.423Z,66.30
2023-03-31T11:59:54.693Z,66.61
2023-03-31T12:00:54.917Z,66.20
2023-03-31T12:01:55.181Z,66.58
2023-03-31T12:02:56.215Z,66.47
2023-03-31T12:03:55.837Z,66.78
2023-03-31T12:04:55.964Z,67.29
2023-03-31T12:05:56.245Z,67.69
2023-03-31T12:06:57.190Z,67.29
2023-03-31T12:07:56.735Z,67.18
2023-03-31T12:08:56.999Z,67.29
2023-03-31T12:09:57.207Z,67.29
2023-03-31T12:10:58.260Z,67.08
2023-03-31T12:11:57.696Z,67.29
2023-03-31T12:12:57.944Z,67.49
2023-03-31T12:13:58.303Z,67.79
2023-03-31T12:14:58.537Z,67.79
2023-03-31T12:15:58.793Z,67.99
2023-03-31T12:16:59.119Z,67.99
2023-03-31T12:17:59.385Z,66.61
2023-03-31T12:19:00.432Z,66.91
2023-03-31T12:19:59.857Z,67.22
2023-03-31T12:21:00.853Z,67.52
2023-03-31T12:22:00.410Z,67.62
2023-03-31T12:23:00.635Z,68.84
2023-03-31T12:24:01.082Z,70.05
2023-03-31T12:25:01.308Z,70.69
2023-03-31T12:26:01.552Z,71.09
2023-03-31T12:27:01.803Z,71.40
2023-03-31T12:28:02.127Z,71.60
2023-03-31T12:29:02.496Z,71.80
2023-03-31T12:30:02.730Z,71.73
2023-03-31T12:31:03.147Z,71.94
2023-03-31T12:32:03.411Z,71.84
2023-03-31T12:33:03.678Z,72.04
2023-03-31T12:34:03.896Z,72.04
2023-03-31T12:35:04.122Z,72.28
2023-03-31T12:36:04.806Z,72.75
2023-03-31T12:37:04.761Z,72.55
2023-03-31T12:38:04.988Z,72.24
2023-03-31T12:39:05.371Z,72.34
2023-03-31T12:40:05.638Z,72.55
2023-03-31T12:41:05.853Z,72.75
2023-03-31T12:42:06.119Z,72.52
2023-03-31T12:43:06.348Z,71.20
2023-03-31T12:44:06.566Z,70.59
2023-03-31T12:45:06.844Z,70.59
2023-03-31T12:46:07.396Z,70.69
2023-03-31T12:47:07.673Z,70.89
2023-03-31T12:48:07.712Z,70.29
2023-03-31T12:49:08.098Z,69.88
2023-03-31T12:50:08.190Z,70.69
2023-03-31T12:51:08.580Z,70.39
2023-03-31T12:52:08.665Z,69.10
2023-03-31T12:53:09.023Z,68.60
2023-03-31T12:54:09.215Z,69.10
2023-03-31T12:55:09.702Z,69.41
2023-03-31T12:56:09.862Z,69.71